Time;durP1;ratioP1;P1;durP2;ratioP2;P2;SDS_P1;SDS_P2;PMS_P1;PMS_P2;Temp;Humidity;BMP_temperature;BMP_pressure;BME280_temperature;BME280_humidity;BME280_pressure;Samples;Min_cycle;Max_cycle;Signal;HPM_P1;HPM_P2
2023/10/14 00:01:13;;;;;;;6.47;3.70;;;;;;;20.98;43.69;156759.13;5031237;28;20435;-80
2023/10/14 00:03:42;;;;;;;5.77;3.40;;;;;;;20.97;44.19;156755.25;5029924;28;21011;-80
2023/10/14 00:06:11;;;;;;;3.80;3.30;;;;;;;20.97;44.13;156755.25;5020329;28;20470;-80
2023/10/14 00:08:47;;;;;;;7.80;4.30;;;;;;;20.95;44.33;156750.00;5015327;28;20860;-80
2023/10/14 00:11:15;;;;;;;5.63;3.67;;;;;;;20.96;44.68;156752.63;5014678;28;21009;-80
2023/10/14 00:13:42;;;;;;;7.97;3.60;;;;;;;20.94;45.01;156747.41;5046744;28;20440;-80
2023/10/14 00:16:20;;;;;;;6.20;3.60;;;;;;;20.94;45.22;156747.41;5030890;28;20970;-80
2023/10/14 00:18:49;;;;;;;5.10;3.83;;;;;;;20.95;45.87;156750.00;5027195;28;20992;-80
2023/10/14 00:21:16;;;;;;;5.13;3.50;;;;;;;20.95;47.17;156751.31;5047680;28;21030;-80
2023/10/14 00:23:43;;;;;;;5.80;4.27;;;;;;;21.01;48.28;156765.66;5031231;28;20972;-80
2023/10/14 00:26:15;;;;;;;8.03;3.97;;;;;;;20.99;48.88;156760.44;5030257;28;20440;-80
2023/10/14 00:28:46;;;;;;;4.97;3.90;;;;;;;21.01;49.62;156765.66;5032612;28;20852;-80
2023/10/14 00:31:13;;;;;;;5.03;3.93;;;;;;;21.02;50.03;156768.28;5034875;28;20435;-80
2023/10/14 00:33:41;;;;;;;6.40;4.30;;;;;;;21.01;49.79;156766.97;5031381;28;20514;-80
2023/10/14 00:36:13;;;;;;;6.20;4.03;;;;;;;20.97;49.30;156756.50;5029081;28;20439;-80
2023/10/14 00:38:43;;;;;;;8.30;4.03;;;;;;;20.96;50.30;156753.94;5035387;28;20463;-80
2023/10/14 00:41:10;;;;;;;5.17;4.23;;;;;;;20.96;51.32;156753.94;5030470;28;20538;-80
2023/10/14 00:43:39;;;;;;;7.30;4.20;;;;;;;20.96;51.76;156752.63;5012834;28;20464;-79
2023/10/14 00:46:12;;;;;;;6.30;4.00;;;;;;;20.94;51.91;156748.69;5011384;28;20586;-80
2023/10/14 00:48:40;;;;;;;5.60;4.23;;;;;;;20.97;52.73;156755.25;5028326;28;20448;-80
2023/10/14 00:51:11;;;;;;;7.03;4.80;;;;;;;20.98;54.14;156759.13;5029986;28;20482;-80
2023/10/14 00:53:39;;;;;;;5.10;4.60;;;;;;;20.96;55.93;156752.63;5031007;28;20531;-80
2023/10/14 00:56:10;;;;;;;5.63;4.93;;;;;;;20.98;57.70;156757.81;5029945;28;20810;-80
2023/10/14 00:58:41;;;;;;;5.47;4.87;;;;;;;20.97;59.59;156755.25;5036694;28;20435;-80
2023/10/14 01:01:07;;;;;;;8.40;5.63;;;;;;;20.95;61.04;156750.00;5028852;28;20451;-79
2023/10/14 01:03:36;;;;;;;8.20;5.43;;;;;;;20.93;62.61;156744.78;5012214;28;20472;-80
2023/10/14 01:06:17;;;;;;;7.77;5.67;;;;;;;20.93;63.18;156746.09;5007719;28;20451;-80
2023/10/14 01:08:46;;;;;;;11.83;5.67;;;;;;;20.90;64.66;156738.25;5026334;28;20977;-80
2023/10/14 01:11:16;;;;;;;9.83;5.80;;;;;;;20.89;67.05;156734.38;5025136;28;20455;-79
2023/10/14 01:13:44;;;;;;;8.37;5.40;;;;;;;20.85;67.88;156725.22;5023503;28;20455;-80
2023/10/14 01:16:12;;;;;;;7.50;6.37;;;;;;;20.81;67.65;156713.47;5029491;28;20432;-80
2023/10/14 01:18:39;;;;;;;7.57;6.33;;;;;;;20.76;67.91;156700.44;5027166;28;20714;-79
2023/10/14 01:21:06;;;;;;;9.10;6.77;;;;;;;20.68;68.00;156680.84;5016323;28;20546;-80
2023/10/14 01:23:37;;;;;;;7.43;5.90;;;;;;;20.64;68.37;156670.41;5030073;28;20474;-80
2023/10/14 01:26:05;;;;;;;8.63;5.57;;;;;;;20.62;69.08;156665.22;5012576;28;20559;-80
2023/10/14 01:28:32;;;;;;;7.23;6.10;;;;;;;20.54;68.98;156645.59;5028496;28;20463;-80
2023/10/14 01:31:30;;;;;;;6.50;5.80;;;;;;;20.49;69.00;156632.56;5028683;28;20444;-80
2023/10/14 01:33:57;;;;;;;7.80;5.60;;;;;;;20.47;69.65;156627.34;5029039;28;20435;-80
2023/10/14 01:36:24;;;;;;;7.00;5.57;;;;;;;20.45;69.64;156622.16;5013088;28;20785;-80
2023/10/14 01:38:58;;;;;;;7.40;6.23;;;;;;;20.43;69.36;156615.63;5039079;28;20458;-80
2023/10/14 01:41:25;;;;;;;6.30;5.07;;;;;;;20.42;70.27;156614.31;5012435;28;20439;-80
2023/10/14 01:43:52;;;;;;;9.07;6.83;;;;;;;20.36;70.71;156598.66;5029569;28;20479;-80
2023/10/14 01:46:20;;;;;;;8.70;6.17;;;;;;;20.33;71.11;156590.81;5010523;28;20467;-79
2023/10/14 01:48:52;;;;;;;6.57;5.80;;;;;;;20.31;71.17;156584.31;5038581;28;20435;-80
2023/10/14 01:51:19;;;;;;;7.77;6.00;;;;;;;20.30;71.43;156583.03;5029271;28;20424;-80
2023/10/14 01:53:46;;;;;;;9.77;6.20;;;;;;;20.28;71.34;156577.78;5028882;28;20511;-80
2023/10/14 01:56:16;;;;;;;7.50;6.07;;;;;;;20.25;71.54;156570.00;5030976;28;20464;-80
2023/10/14 01:58:45;;;;;;;8.20;6.70;;;;;;;20.28;71.48;156576.50;5027227;28;20436;-80
2023/10/14 02:01:15;;;;;;;6.83;6.13;;;;;;;20.22;71.90;156562.13;5012214;28;20444;-80
2023/10/14 02:03:44;;;;;;;6.90;5.93;;;;;;;20.16;72.12;156546.44;5011663;28;20871;-80
2023/10/14 02:06:17;;;;;;;6.93;6.23;;;;;;;20.12;72.14;156536.00;5025364;28;20461;-80
2023/10/14 02:08:45;;;;;;;6.50;5.90;;;;;;;20.11;72.61;156532.09;5010140;28;20439;-80
2023/10/14 02:11:11;;;;;;;7.03;6.10;;;;;;;20.07;72.44;156522.94;5026198;28;20462;-80
2023/10/14 02:13:39;;;;;;;8.30;6.37;;;;;;;20.04;72.72;156515.19;5012147;28;20447;-80
2023/10/14 02:16:08;;;;;;;8.73;6.37;;;;;;;20.01;72.42;156507.34;5028044;28;20465;-80
2023/10/14 02:18:36;;;;;;;7.30;6.37;;;;;;;20.04;72.83;156515.19;5005354;28;20586;-80
2023/10/14 02:21:06;;;;;;;7.97;6.37;;;;;;;20.04;72.92;156515.19;5036546;28;20444;-80
2023/10/14 02:23:43;;;;;;;7.70;6.13;;;;;;;20.03;73.01;156513.88;5029800;28;20507;-80
2023/10/14 02:26:13;;;;;;;6.50;5.90;;;;;;;20.01;73.05;156507.34;5022274;28;20448;-80
2023/10/14 02:28:45;;;;;;;6.90;5.73;;;;;;;19.99;73.38;156503.41;5022627;28;20935;-80
2023/10/14 02:31:17;;;;;;;7.90;6.50;;;;;;;20.02;73.32;156509.91;5026154;28;20880;-80
2023/10/14 02:33:47;;;;;;;7.87;7.07;;;;;;;20.01;73.40;156508.59;5018888;28;20512;-80
2023/10/14 02:36:15;;;;;;;7.33;6.53;;;;;;;20.00;73.36;156504.72;5019623;28;20435;-80
2023/10/14 02:38:46;;;;;;;10.43;6.40;;;;;;;20.03;73.33;156512.53;5024212;28;20456;-80
2023/10/14 02:41:16;;;;;;;7.77;7.00;;;;;;;20.05;73.21;156517.75;5010322;28;20428;-80
2023/10/14 02:43:48;;;;;;;9.10;5.87;;;;;;;20.01;73.37;156507.34;5026523;28;20470;-80
2023/10/14 02:46:20;;;;;;;6.93;6.23;;;;;;;19.98;73.99;156500.81;5023986;28;20483;-80
2023/10/14 02:48:53;;;;;;;8.97;6.47;;;;;;;19.97;73.78;156496.88;5008876;28;20440;-80
2023/10/14 02:51:29;;;;;;;8.00;6.50;;;;;;;19.95;73.87;156493.00;5011406;28;20420;-80
2023/10/14 02:53:58;;;;;;;6.77;6.17;;;;;;;19.95;73.77;156491.69;5028979;28;20454;-80
2023/10/14 02:56:33;;;;;;;7.40;6.00;;;;;;;19.97;73.30;156498.19;5013132;28;20501;-80
2023/10/14 02:59:01;;;;;;;9.10;7.23;;;;;;;19.99;73.78;156502.09;5029386;28;21037;-80
2023/10/14 03:01:33;;;;;;;7.80;6.70;;;;;;;20.00;73.53;156504.72;5010977;28;20985;-80
2023/10/14 03:04:07;;;;;;;7.63;6.67;;;;;;;20.01;73.40;156507.34;5028769;28;20479;-80
2023/10/14 03:06:46;;;;;;;8.87;6.43;;;;;;;19.99;73.08;156502.09;5022464;28;20547;-80
2023/10/14 03:09:14;;;;;;;7.23;6.37;;;;;;;19.97;73.56;156496.88;4994081;28;20479;-80
2023/10/14 03:11:44;;;;;;;9.40;6.60;;;;;;;19.95;73.81;156491.69;5025863;28;20535;-80
2023/10/14 03:14:12;;;;;;;8.27;6.60;;;;;;;19.96;73.39;156494.31;5026973;28;20799;-80
2023/10/14 03:16:39;;;;;;;6.73;5.97;;;;;;;19.94;73.51;156490.38;5011675;28;20943;-80
2023/10/14 03:19:04;;;;;;;12.93;6.80;;;;;;;19.97;73.26;156496.88;5006909;28;20457;-80
2023/10/14 03:21:31;;;;;;;6.53;5.87;;;;;;;19.97;73.09;156498.19;5011001;28;20463;-80
2023/10/14 03:23:58;;;;;;;7.73;6.70;;;;;;;19.98;72.71;156499.50;5011152;28;20234;-80
2023/10/14 03:26:28;;;;;;;11.07;7.00;;;;;;;19.97;72.94;156498.19;5027092;28;20478;-80
2023/10/14 03:28:57;;;;;;;8.30;7.00;;;;;;;19.95;73.19;156491.69;5025743;28;20550;-80
2023/10/14 03:31:26;;;;;;;8.00;6.90;;;;;;;19.94;73.24;156489.06;5027480;28;20447;-80
2023/10/14 03:33:58;;;;;;;7.77;6.97;;;;;;;19.94;73.29;156489.06;5026767;28;20545;-80
2023/10/14 03:36:28;;;;;;;7.60;6.50;;;;;;;19.94;73.32;156489.06;5028925;28;20467;-80
2023/10/14 03:38:57;;;;;;;6.57;5.83;;;;;;;19.89;73.22;156476.03;5020228;28;20813;-80
2023/10/14 03:41:29;;;;;;;8.00;7.13;;;;;;;19.91;73.47;156481.22;5043252;28;20436;-80
2023/10/14 03:43:58;;;;;;;7.83;7.03;;;;;;;19.88;73.64;156473.44;5026210;28;20496;-80
2023/10/14 03:46:32;;;;;;;7.43;6.63;;;;;;;19.85;73.67;156465.63;5025007;28;20839;-80
2023/10/14 03:48:59;;;;;;;7.90;6.53;;;;;;;19.84;73.69;156463.00;5007372;28;20793;-80
2023/10/14 03:51:27;;;;;;;7.70;6.90;;;;;;;19.83;74.03;156460.41;5009576;28;20441;-80
2023/10/14 03:53:54;;;;;;;8.60;6.83;;;;;;;19.81;73.99;156456.47;5026655;28;20468;-80
2023/10/14 03:56:25;;;;;;;7.50;6.30;;;;;;;19.78;74.35;156448.63;5013376;28;20447;-80
2023/10/14 03:58:55;;;;;;;8.80;6.07;;;;;;;19.80;74.44;156452.59;5024505;28;20448;-80
2023/10/14 04:01:23;;;;;;;8.80;6.73;;;;;;;19.79;74.51;156449.94;5027510;28;20436;-80
2023/10/14 04:03:53;;;;;;;8.50;7.10;;;;;;;19.79;74.66;156451.28;5026169;28;20494;-80
2023/10/14 04:06:20;;;;;;;12.17;7.17;;;;;;;19.79;74.85;156449.94;5020576;28;20450;-79
2023/10/14 04:08:48;;;;;;;10.40;7.37;;;;;;;19.80;75.01;156452.59;5026612;28;20439;-80
2023/10/14 04:11:17;;;;;;;10.63;6.77;;;;;;;19.81;75.07;156455.16;5014091;28;20831;-80
2023/10/14 04:13:51;;;;;;;8.53;7.73;;;;;;;19.79;75.61;156451.28;5007812;28;20476;-80
2023/10/14 04:16:27;;;;;;;10.50;7.13;;;;;;;19.77;75.61;156444.75;5012064;28;20533;-80
2023/10/14 04:19:00;;;;;;;7.10;6.20;;;;;;;19.77;75.66;156444.75;5026669;28;20442;-80
2023/10/14 04:21:35;;;;;;;10.30;7.10;;;;;;;19.77;76.04;156444.75;5027880;28;20447;-80
2023/10/14 04:24:13;;;;;;;8.27;7.47;;;;;;;19.77;76.30;156446.06;5026496;28;20518;-80
2023/10/14 04:26:41;;;;;;;9.77;7.03;;;;;;;19.79;76.09;156449.94;5047659;28;20434;-80
2023/10/14 04:29:17;;;;;;;8.97;6.97;;;;;;;19.79;76.26;156451.28;5034539;28;20487;-80
2023/10/14 04:31:55;;;;;;;9.13;7.40;;;;;;;19.76;76.34;156443.44;5013229;28;20450;-80
2023/10/14 04:34:23;;;;;;;9.53;7.23;;;;;;;19.77;76.22;156446.06;5036112;28;21036;-80
2023/10/14 04:36:56;;;;;;;8.83;6.67;;;;;;;19.77;76.31;156446.06;5029897;28;20513;-80
2023/10/14 04:39:33;;;;;;;8.30;6.83;;;;;;;19.75;76.30;156439.56;5029765;28;20498;-80
2023/10/14 04:44:54;;;;;;;7.87;6.73;;;;;;;19.70;76.33;156426.47;5021766;28;20468;-80
2023/10/14 04:47:27;;;;;;;9.10;6.60;;;;;;;19.72;75.57;156431.72;5029211;28;20435;-80
2023/10/14 04:49:56;;;;;;;7.73;6.93;;;;;;;19.74;75.50;156438.22;5028512;28;20462;-80
2023/10/14 04:52:26;;;;;;;7.90;6.87;;;;;;;19.71;76.05;156430.41;5036959;28;20963;-80
2023/10/14 04:54:54;;;;;;;8.83;6.70;;;;;;;19.68;76.45;156421.25;5036251;28;20480;-80
2023/10/14 04:57:22;;;;;;;9.23;6.93;;;;;;;19.63;76.21;156408.22;5029126;28;20574;-80
2023/10/14 04:59:53;;;;;;;7.07;6.20;;;;;;;19.58;76.14;156396.50;5028645;28;20435;-81
2023/10/14 05:02:21;;;;;;;7.57;6.13;;;;;;;19.56;75.81;156390.00;5015231;28;20969;-81
2023/10/14 05:04:50;;;;;;;8.40;6.70;;;;;;;19.51;76.17;156378.28;5034018;28;20471;-80
2023/10/14 05:07:18;;;;;;;9.63;7.00;;;;;;;19.48;76.31;156369.13;5017513;28;20444;-80
2023/10/14 05:09:56;;;;;;;7.40;5.90;;;;;;;19.44;76.42;156361.31;5016516;28;21017;-80
2023/10/14 05:12:25;;;;;;;8.97;6.53;;;;;;;19.40;76.15;156350.91;5032779;28;20455;-80
2023/10/14 05:14:55;;;;;;;11.33;7.10;;;;;;;19.38;75.94;156344.34;5016227;28;20451;-80
2023/10/14 05:17:25;;;;;;;7.33;5.50;;;;;;;19.36;75.46;156340.41;5016215;28;20448;-81
2023/10/14 05:19:57;;;;;;;7.27;5.60;;;;;;;19.37;75.15;156343.06;5014335;28;20464;-80
2023/10/14 05:22:37;;;;;;;9.73;6.10;;;;;;;19.38;74.72;156345.66;5015198;28;20455;-80
2023/10/14 05:25:15;;;;;;;7.00;5.77;;;;;;;19.38;74.20;156345.66;5019275;28;20858;-80
2023/10/14 05:27:56;;;;;;;7.17;5.53;;;;;;;19.36;74.12;156340.41;5020254;28;20444;-80
2023/10/14 05:30:23;;;;;;;8.97;5.90;;;;;;;19.38;73.62;156344.34;5017629;28;20501;-80
2023/10/14 05:32:51;;;;;;;6.37;5.20;;;;;;;19.40;73.02;156349.59;5013585;28;20456;-80
2023/10/14 05:35:22;;;;;;;7.07;5.77;;;;;;;19.38;72.77;156344.34;5031625;28;21902;-79
2023/10/14 05:37:50;;;;;;;7.50;6.23;;;;;;;19.35;72.90;156337.78;5018103;28;20453;-80
2023/10/14 05:40:17;;;;;;;8.30;6.07;;;;;;;19.37;72.74;156343.06;5031032;28;20505;-79
2023/10/14 05:42:45;;;;;;;8.03;5.70;;;;;;;19.36;72.93;156340.41;5015270;28;20459;-78
2023/10/14 05:45:12;;;;;;;6.37;5.77;;;;;;;19.37;72.55;156341.72;5034954;28;20469;-79
2023/10/14 05:47:40;;;;;;;7.27;5.27;;;;;;;19.36;72.60;156340.41;5016180;28;20443;-78
2023/10/14 05:50:12;;;;;;;8.50;5.57;;;;;;;19.35;72.84;156337.78;5016551;28;20468;-79
2023/10/14 05:52:39;;;;;;;7.53;5.60;;;;;;;19.35;75.48;156337.78;5018147;28;20566;-78
2023/10/14 05:55:09;;;;;;;7.27;6.27;;;;;;;19.31;77.70;156327.38;5020062;28;20460;-80
2023/10/14 05:57:39;;;;;;;6.23;5.40;;;;;;;19.25;79.13;156311.72;5021576;28;20448;-79
2023/10/14 06:00:20;;;;;;;6.60;5.87;;;;;;;19.18;80.39;156292.19;5019532;28;20456;-79
2023/10/14 06:02:48;;;;;;;6.00;5.20;;;;;;;19.12;80.59;156277.84;5016183;28;20547;-79
2023/10/14 06:05:16;;;;;;;9.37;5.80;;;;;;;19.11;80.72;156273.94;5019579;28;20468;-79
2023/10/14 06:07:46;;;;;;;6.60;5.53;;;;;;;19.10;81.23;156271.31;5014446;28;20866;-79
2023/10/14 06:10:20;;;;;;;7.77;6.10;;;;;;;19.07;81.29;156263.50;5013958;28;20456;-79
2023/10/14 06:12:51;;;;;;;8.70;6.63;;;;;;;19.09;81.03;156270.00;5015346;28;20460;-79
2023/10/14 06:15:19;;;;;;;8.37;5.77;;;;;;;19.09;81.49;156270.00;5016936;28;20533;-79
2023/10/14 06:17:47;;;;;;;11.40;6.17;;;;;;;19.05;81.66;156259.59;5017624;28;20452;-79
2023/10/14 06:20:15;;;;;;;8.20;6.00;;;;;;;19.04;81.52;156256.97;5014765;28;20486;-79
2023/10/14 06:22:43;;;;;;;9.80;5.93;;;;;;;19.03;81.51;156254.41;5016110;28;20457;-79
2023/10/14 06:25:15;;;;;;;6.77;5.40;;;;;;;19.02;81.72;156250.47;5018000;28;20468;-79
2023/10/14 06:27:46;;;;;;;7.57;5.70;;;;;;;19.03;81.34;156254.41;5014430;28;20536;-79
2023/10/14 06:30:20;;;;;;;7.23;5.77;;;;;;;19.07;81.02;156264.81;5014830;28;20464;-79
2023/10/14 06:32:48;;;;;;;7.00;6.30;;;;;;;19.05;81.24;156259.59;5031222;28;20988;-79
2023/10/14 06:35:15;;;;;;;7.83;5.10;;;;;;;19.03;81.59;156254.41;5013494;28;20483;-79
2023/10/14 06:37:45;;;;;;;9.50;5.57;;;;;;;19.03;81.75;156253.09;5011688;28;21016;-79
2023/10/14 06:40:14;;;;;;;8.00;5.70;;;;;;;19.02;81.49;156251.78;5016637;28;20849;-79
2023/10/14 06:42:45;;;;;;;7.83;5.80;;;;;;;19.02;81.57;156251.78;5013657;28;20448;-79
2023/10/14 06:45:18;;;;;;;7.70;5.97;;;;;;;19.03;81.88;156254.41;5022976;28;20473;-79
2023/10/14 06:47:47;;;;;;;6.63;5.60;;;;;;;19.01;82.65;156249.16;5015054;28;20470;-79
2023/10/14 06:50:14;;;;;;;6.80;5.40;;;;;;;19.02;84.31;156250.47;5015133;28;20463;-78
2023/10/14 06:52:41;;;;;;;8.60;5.80;;;;;;;18.98;84.75;156241.38;5014366;28;20534;-79
2023/10/14 06:55:08;;;;;;;6.73;5.90;;;;;;;18.93;84.39;156228.31;5017357;28;20456;-79
2023/10/14 06:57:36;;;;;;;7.90;6.80;;;;;;;18.95;85.54;156233.56;5012796;28;20447;-79
2023/10/14 07:00:12;;;;;;;8.50;6.60;;;;;;;18.90;86.35;156220.53;5016284;28;20464;-79
2023/10/14 07:02:39;;;;;;;7.57;6.20;;;;;;;18.88;87.39;156214.03;5016073;28;20554;-79
2023/10/14 07:05:09;;;;;;;14.70;6.60;;;;;;;18.84;87.59;156204.88;5015726;28;20480;-79
2023/10/14 07:07:35;;;;;;;6.90;5.80;;;;;;;18.83;87.32;156202.25;5012816;28;20542;-79
2023/10/14 07:10:03;;;;;;;8.77;5.57;;;;;;;18.85;86.20;156208.78;5017344;28;20984;-79
2023/10/14 07:12:29;;;;;;;7.67;6.57;;;;;;;18.85;86.45;156208.78;5017174;28;20447;-79
2023/10/14 07:14:56;;;;;;;7.37;5.80;;;;;;;18.91;85.67;156223.09;5016281;28;20463;-79
2023/10/14 07:17:25;;;;;;;8.10;6.30;;;;;;;18.99;86.71;156243.97;4996987;28;20456;-80
2023/10/14 07:19:51;;;;;;;6.70;6.10;;;;;;;19.03;86.02;156254.41;5013443;28;20452;-80
2023/10/14 07:22:20;;;;;;;8.50;5.80;;;;;;;19.06;85.43;156262.19;5016884;28;21195;-80
2023/10/14 07:24:47;;;;;;;9.70;6.03;;;;;;;19.17;85.38;156289.53;5019482;28;20732;-79
2023/10/14 07:27:17;;;;;;;7.67;5.67;;;;;;;19.26;84.72;156313.03;5016841;28;20456;-79
2023/10/14 07:29:57;;;;;;;7.23;5.90;;;;;;;19.52;84.80;156380.84;5030700;28;20573;-80
2023/10/14 07:32:30;;;;;;;6.77;5.60;;;;;;;20.24;80.41;156566.06;5016742;28;20451;-80
2023/10/14 07:35:00;;;;;;;6.87;5.30;;;;;;;20.94;77.11;156748.69;5021778;28;20574;-80
2023/10/14 07:37:26;;;;;;;7.80;5.53;;;;;;;21.42;74.38;156872.72;5016016;28;20824;-80
2023/10/14 07:39:53;;;;;;;8.20;6.17;;;;;;;21.36;73.70;156857.09;5016247;28;20483;-80
2023/10/14 07:42:21;;;;;;;7.80;5.60;;;;;;;21.64;73.15;156930.16;5016627;28;20462;-80
2023/10/14 07:44:48;;;;;;;7.63;5.83;;;;;;;22.04;71.42;157032.03;5014870;28;20836;-80
2023/10/14 07:47:14;;;;;;;5.93;5.27;;;;;;;22.58;69.83;157173.13;5012284;28;20459;-80
2023/10/14 07:49:44;;;;;;;5.93;5.20;;;;;;;23.19;67.78;157329.97;5015982;28;20543;-80
2023/10/14 07:52:14;;;;;;;6.53;5.93;;;;;;;23.50;64.37;157411.03;5017555;28;20440;-80
2023/10/14 07:54:42;;;;;;;6.63;5.60;;;;;;;23.26;64.55;157349.56;5017827;28;20458;-80
2023/10/14 07:57:11;;;;;;;6.40;5.67;;;;;;;22.82;65.52;157234.59;5016996;28;20455;-80
2023/10/14 07:59:38;;;;;;;8.10;5.60;;;;;;;22.36;66.94;157116.97;5018571;28;20448;-80
2023/10/14 08:02:07;;;;;;;6.30;5.20;;;;;;;21.99;68.32;157019.00;5025378;28;20446;-81
2023/10/14 08:04:34;;;;;;;9.90;5.80;;;;;;;21.69;68.68;156943.22;5030844;28;20474;-80
2023/10/14 08:07:05;;;;;;;6.53;5.40;;;;;;;21.52;69.02;156898.84;5017758;28;20483;-80
2023/10/14 08:09:34;;;;;;;6.80;4.90;;;;;;;21.33;69.56;156849.25;5016914;28;20971;-80
2023/10/14 08:12:01;;;;;;;5.40;4.37;;;;;;;21.19;69.40;156812.69;5036170;28;20462;-80
2023/10/14 08:14:30;;;;;;;5.13;4.27;;;;;;;21.09;69.56;156787.91;5016841;28;20459;-80
2023/10/14 08:16:57;;;;;;;5.50;4.47;;;;;;;21.01;69.36;156766.97;5015938;28;20551;-80
2023/10/14 08:19:26;;;;;;;3.70;3.20;;;;;;;20.91;69.54;156739.56;5016750;28;20462;-80
2023/10/14 08:21:52;;;;;;;4.93;3.67;;;;;;;20.80;70.56;156710.84;5019214;28;20623;-80
2023/10/14 08:24:21;;;;;;;2.90;2.60;;;;;;;20.65;71.64;156673.03;5018161;28;20463;-80
2023/10/14 08:26:49;;;;;;;4.00;2.93;;;;;;;20.53;72.38;156643.03;5016571;28;20463;-80
2023/10/14 08:29:19;;;;;;;3.73;2.57;;;;;;;20.43;72.42;156615.63;5034629;28;20447;-80
2023/10/14 08:31:51;;;;;;;2.80;2.43;;;;;;;20.37;72.77;156599.97;5017677;28;20456;-80
2023/10/14 08:34:18;;;;;;;3.23;2.70;;;;;;;20.35;72.76;156594.75;5018790;28;20463;-80
2023/10/14 08:36:44;;;;;;;4.13;2.57;;;;;;;20.36;72.36;156598.66;4999300;28;20456;-80
2023/10/14 08:39:14;;;;;;;4.73;2.50;;;;;;;20.34;71.99;156593.44;5002271;28;20502;-80
2023/10/14 08:41:45;;;;;;;3.50;2.40;;;;;;;20.34;72.23;156593.44;5015671;28;20463;-80
2023/10/14 08:44:12;;;;;;;2.53;2.23;;;;;;;20.36;71.64;156597.38;5020031;28;20447;-80
2023/10/14 08:46:40;;;;;;;5.40;2.57;;;;;;;20.38;71.87;156602.59;5017696;28;20468;-79
2023/10/14 08:49:08;;;;;;;3.67;2.73;;;;;;;20.41;72.20;156610.44;5018690;28;20460;-80
2023/10/14 08:51:37;;;;;;;4.30;3.10;;;;;;;20.47;72.49;156626.03;5018497;28;20827;-80
2023/10/14 08:54:06;;;;;;;5.37;3.13;;;;;;;20.50;73.27;156635.19;5018653;28;20605;-81
2023/10/14 08:56:34;;;;;;;8.00;4.40;;;;;;;20.50;74.82;156635.19;5034420;28;20550;-80
2023/10/14 08:59:03;;;;;;;6.07;5.43;;;;;;;20.53;75.66;156641.72;5018761;28;20464;-80
2023/10/14 09:01:31;;;;;;;8.57;5.07;;;;;;;20.52;76.10;156639.06;5017111;28;20448;-81
2023/10/14 09:04:03;;;;;;;7.20;4.73;;;;;;;20.55;77.17;156648.22;5015087;28;20455;-80
2023/10/14 09:06:36;;;;;;;7.57;4.90;;;;;;;20.64;76.82;156671.72;5012861;28;20452;-81
2023/10/14 09:09:02;;;;;;;6.47;5.33;;;;;;;20.74;77.33;156695.19;5016853;28;20460;-80
2023/10/14 09:11:33;;;;;;;5.20;4.70;;;;;;;20.81;76.53;156713.47;5017281;28;20444;-80
2023/10/14 09:14:06;;;;;;;4.60;4.20;;;;;;;20.87;76.21;156729.09;5015661;28;20472;-80
2023/10/14 09:16:34;;;;;;;10.30;4.67;;;;;;;20.91;76.06;156739.56;5015858;28;20537;-80
2023/10/14 09:19:02;;;;;;;7.57;5.53;;;;;;;20.90;75.86;156738.25;5017604;28;20554;-81
2023/10/14 09:21:30;;;;;;;5.10;4.60;;;;;;;20.83;75.87;156720.00;5017557;28;20486;-80
2023/10/14 09:24:03;;;;;;;5.43;3.13;;;;;;;20.78;75.24;156706.97;5015532;28;20488;-81
2023/10/14 09:26:37;;;;;;;2.20;1.60;;;;;;;20.59;71.76;156657.38;5019740;28;20466;-80
2023/10/14 09:29:06;;;;;;;3.93;1.40;;;;;;;20.20;80.20;156556.84;5018487;28;20480;-80
2023/10/14 09:31:37;;;;;;;2.67;1.30;;;;;;;19.71;86.53;156429.09;5018511;28;20451;-79
2023/10/14 09:34:04;;;;;;;3.00;1.13;;;;;;;19.26;89.73;156314.34;5016581;28;20479;-81
2023/10/14 09:36:35;;;;;;;1.60;1.30;;;;;;;18.89;90.78;156217.91;5018831;28;20845;-81
2023/10/14 09:39:11;;;;;;;2.83;1.00;;;;;;;18.59;91.15;156139.72;5017918;28;20493;-80
2023/10/14 09:41:38;;;;;;;1.50;1.30;;;;;;;18.45;93.96;156103.22;5000476;28;20460;-80
2023/10/14 09:44:08;;;;;;;1.67;1.10;;;;;;;18.33;95.01;156071.94;5017509;28;20473;-81
2023/10/14 09:46:40;;;;;;;1.60;1.10;;;;;;;18.22;96.36;156045.91;5032515;28;20824;-80
2023/10/14 09:49:10;;;;;;;1.70;1.20;;;;;;;18.15;97.25;156027.69;5019295;28;20453;-81
2023/10/14 09:51:38;;;;;;;1.67;1.20;;;;;;;18.01;97.92;155991.22;5015746;28;20454;-79
2023/10/14 09:54:05;;;;;;;1.50;1.20;;;;;;;17.91;98.28;155965.16;5012828;28;20459;-79
2023/10/14 09:56:32;;;;;;;2.60;1.50;;;;;;;17.86;98.36;155952.16;5013281;28;20586;-79
2023/10/14 09:58:58;;;;;;;2.10;1.23;;;;;;;17.80;98.73;155935.22;5015343;28;20973;-79
2023/10/14 10:01:29;;;;;;;2.00;1.40;;;;;;;17.78;100.00;155931.31;5014279;28;20547;-80
2023/10/14 10:04:00;;;;;;;1.50;1.03;;;;;;;17.72;100.00;155915.69;5015837;28;20809;-77
2023/10/14 10:06:35;;;;;;;1.53;1.20;;;;;;;17.69;100.00;155907.88;5024160;28;20467;-79
2023/10/14 10:09:19;;;;;;;1.80;1.13;;;;;;;17.60;99.90;155884.47;5015651;28;20529;-77
2023/10/14 10:11:48;;;;;;;1.43;0.80;;;;;;;17.62;100.00;155889.66;5030382;28;20452;-77
2023/10/14 10:14:18;;;;;;;1.50;1.00;;;;;;;17.66;100.00;155900.06;5011864;28;20501;-77
2023/10/14 10:16:48;;;;;;;1.40;0.90;;;;;;;17.67;100.00;155902.69;5016663;28;20448;-78
2023/10/14 10:19:15;;;;;;;2.00;1.00;;;;;;;17.75;100.00;155922.19;5018063;28;20460;-78
2023/10/14 10:22:12;;;;;;;1.20;0.80;;;;;;;17.79;100.00;155933.91;5022389;28;20538;-78
2023/10/14 10:24:41;;;;;;;1.50;1.00;;;;;;;17.82;100.00;155941.72;5015534;28;20478;-79
2023/10/14 10:27:11;;;;;;;1.47;1.07;;;;;;;17.82;100.00;155941.72;5014673;28;20523;-79
2023/10/14 10:29:45;;;;;;;1.77;0.87;;;;;;;17.84;100.00;155946.97;5017032;28;20458;-80
2023/10/14 10:32:18;;;;;;;1.63;1.23;;;;;;;17.80;100.00;155936.53;5014089;28;20444;-80
2023/10/14 10:35:13;;;;;;;1.77;1.20;;;;;;;17.79;100.00;155932.63;5017037;28;20575;-79
2023/10/14 10:37:42;;;;;;;1.30;0.87;;;;;;;17.75;100.00;155923.50;5015339;28;20550;-79
2023/10/14 10:40:11;;;;;;;1.33;1.10;;;;;;;17.75;100.00;155923.50;5018044;28;20523;-79
2023/10/14 10:42:38;;;;;;;1.63;0.93;;;;;;;17.74;100.00;155920.88;4998249;28;20482;-80
2023/10/14 10:45:09;;;;;;;1.30;0.90;;;;;;;17.76;100.00;155926.13;5015759;28;20965;-80
2023/10/14 10:47:45;;;;;;;1.20;0.80;;;;;;;17.79;100.00;155932.63;5012758;28;20563;-81
2023/10/14 10:50:15;;;;;;;1.80;1.00;;;;;;;17.79;100.00;155933.91;5015622;28;20461;-80
2023/10/14 10:52:42;;;;;;;1.83;1.03;;;;;;;17.75;100.00;155922.19;5031157;28;20448;-81
2023/10/14 10:55:10;;;;;;;1.50;1.10;;;;;;;17.75;100.00;155922.19;5014661;28;20862;-80
2023/10/14 10:57:36;;;;;;;1.60;1.20;;;;;;;17.78;100.00;155930.00;5014370;28;20448;-81
2023/10/14 11:00:05;;;;;;;1.57;1.10;;;;;;;17.74;100.00;155920.88;5014467;28;20459;-81
2023/10/14 11:02:35;;;;;;;1.40;0.90;;;;;;;17.73;100.00;155917.00;5016172;28;20449;-81
2023/10/14 11:05:05;;;;;;;2.07;1.40;;;;;;;17.71;100.00;155911.81;5016609;28;20467;-81
2023/10/14 11:07:32;;;;;;;1.57;1.20;;;;;;;17.67;100.00;155901.38;5010877;28;20830;-81
2023/10/14 11:10:00;;;;;;;1.50;1.10;;;;;;;17.60;100.00;155884.47;5014827;28;20460;-81
2023/10/14 11:12:27;;;;;;;2.33;1.30;;;;;;;17.53;100.00;155867.53;5014837;28;20866;-81
2023/10/14 11:14:53;;;;;;;1.30;1.00;;;;;;;17.46;100.00;155847.94;5016092;28;20537;-80
2023/10/14 11:17:26;;;;;;;1.70;1.43;;;;;;;17.49;100.00;155855.78;5013088;28;20498;-80
2023/10/14 11:19:53;;;;;;;2.33;1.10;;;;;;;17.42;100.00;155837.56;5014430;28;21042;-80
2023/10/14 11:22:21;;;;;;;1.63;1.17;;;;;;;17.32;100.00;155811.50;5014188;28;20458;-80
2023/10/14 11:24:50;;;;;;;3.00;1.20;;;;;;;17.21;100.00;155782.91;5018672;28;20471;-80
2023/10/14 11:27:17;;;;;;;2.13;0.97;;;;;;;17.14;100.00;155764.66;5016335;28;20482;-81
2023/10/14 11:29:45;;;;;;;1.50;0.93;;;;;;;17.03;100.00;155738.63;5016082;28;20558;-80
2023/10/14 11:32:12;;;;;;;1.67;1.03;;;;;;;16.94;100.00;155715.19;5016194;28;20448;-80
2023/10/14 11:34:41;;;;;;;2.10;0.77;;;;;;;16.90;100.00;155703.50;5017072;28;20462;-80
2023/10/14 11:37:10;;;;;;;1.30;0.80;;;;;;;16.85;100.00;155691.81;5011253;28;20996;-79
2023/10/14 11:39:38;;;;;;;2.07;0.90;;;;;;;16.80;100.00;155677.47;5017576;28;20480;-79